KCDH/CDH METAR and TAF weather

Enter ICAO airport designator
Station Type Date Time Source
KCDH METAR 2019/12/06 03:55 UTC NOAA

KCDH 060355Z AUTO 14004KT 10SM -DZ FEW031 OVC047 13/05 A3001 RMK AO2


Station Type Date Time Source
KCDH Decoded METAR 2019/12/06 03:55 UTC NOAA

Camden / Harrell Field, AR, United States (KCDH) 33-37N 092-46W
Dec 05, 2019 - 10:55 PM EST / 2019.12.06 0355 UTC
Wind: from the SE (140 degrees) at 5 MPH (4 KT):0
Visibility: 10 mile(s):0
Sky conditions: overcast
Weather: light drizzle
Temperature: 55 F (13 C)
Dew Point: 41 F (5 C)
Relative Humidity: 58%
Pressure (altimeter): 30.01 in. Hg (1016 hPa)
ob: KCDH 060355Z AUTO 14004KT 10SM -DZ FEW031 OVC047 13/05 A3001 RMK AO2
cycle: 4

Station Type Date Time Source
KCDH TAF UTC NOAA

Error!

Example: see airport list